Time;durP1;ratioP1;P1;durP2;ratioP2;P2;SDS_P1;SDS_P2;PMS_P1;PMS_P2;Temp;Humidity;BMP_temperature;BMP_pressure;BME280_temperature;BME280_humidity;BME280_pressure;Samples;Min_cycle;Max_cycle;Signal;HPM_P1;HPM_P2
2021/07/29 00:02:17;;;;;;;8.43;4.70;;;;;;;30.66;37.38;101164.34;144994;571;5002;-84
2021/07/29 00:04:44;;;;;;;8.07;4.50;;;;;;;30.70;37.75;101165.94;144994;629;5002;-82
2021/07/29 00:07:10;;;;;;;10.18;4.68;;;;;;;30.70;37.40;101159.69;144994;610;5002;-83
2021/07/29 00:09:37;;;;;;;9.38;4.55;;;;;;;30.71;37.68;101153.41;144994;581;5002;-82
2021/07/29 00:12:04;;;;;;;8.45;4.43;;;;;;;30.71;37.65;101158.78;144994;570;5002;-83
2021/07/29 00:14:30;;;;;;;9.55;4.82;;;;;;;30.71;37.37;101150.72;144994;590;5002;-82
2021/07/29 00:17:00;;;;;;;6.80;4.43;;;;;;;30.68;37.37;101149.06;144994;569;5002;-84
2021/07/29 00:19:27;;;;;;;9.40;4.30;;;;;;;30.66;37.50;101148.28;144994;601;5002;-82
2021/07/29 00:21:53;;;;;;;8.35;4.60;;;;;;;30.66;37.41;101145.59;144994;570;5002;-83
2021/07/29 00:24:20;;;;;;;7.07;4.57;;;;;;;30.62;37.54;101141.31;144994;606;5002;-82
2021/07/29 00:26:46;;;;;;;9.23;4.50;;;;;;;30.58;37.84;101142.41;144994;585;5002;-82
2021/07/29 00:29:13;;;;;;;11.60;4.70;;;;;;;30.59;37.57;101138.78;144994;635;5002;-82
2021/07/29 00:31:40;;;;;;;7.30;4.90;;;;;;;30.61;37.63;101141.38;144993;564;5002;-82
2021/07/29 00:34:07;;;;;;;8.82;4.32;;;;;;;30.61;37.94;101136.03;144994;564;5002;-83
2021/07/29 00:36:33;;;;;;;8.07;4.37;;;;;;;30.60;37.86;101135.16;144994;615;5002;-82
2021/07/29 00:39:00;;;;;;;8.23;4.60;;;;;;;30.63;37.85;101137.69;144994;565;5002;-82
2021/07/29 00:41:27;;;;;;;7.85;4.93;;;;;;;30.63;37.68;101128.81;144994;617;5002;-81
2021/07/29 00:44:04;;;;;;;9.00;4.45;;;;;;;30.61;37.77;101134.22;144994;594;5002;-81
2021/07/29 00:46:35;;;;;;;11.40;4.30;;;;;;;30.62;37.69;101132.41;144994;583;5002;-83
2021/07/29 00:49:03;;;;;;;12.70;4.57;;;;;;;30.48;36.26;101125.03;144994;590;5002;-83
2021/07/29 00:51:30;;;;;;;7.15;4.45;;;;;;;30.45;37.77;101130.53;144994;634;5002;-83
2021/07/29 00:53:58;;;;;;;11.23;4.50;;;;;;;30.47;37.36;101136.69;144994;630;5002;-83
2021/07/29 00:56:26;;;;;;;7.37;4.53;;;;;;;30.46;37.24;101122.41;144994;607;5002;-83
2021/07/29 00:58:52;;;;;;;7.47;4.57;;;;;;;30.49;37.50;101116.06;144994;579;5002;-82
2021/07/29 01:01:18;;;;;;;7.47;4.18;;;;;;;30.49;37.76;101118.75;144994;564;5002;-82
2021/07/29 01:03:45;;;;;;;10.48;4.40;;;;;;;30.50;37.59;101124.03;144994;592;5002;-81
2021/07/29 01:06:12;;;;;;;7.50;4.20;;;;;;;30.45;37.41;101125.16;144994;610;5002;-80
2021/07/29 01:09:08;;;;;;;8.30;4.43;;;;;;;30.46;37.27;101130.44;144994;603;5002;-83
2021/07/29 01:11:44;;;;;;;10.15;4.62;;;;;;;30.46;37.44;101116.19;144994;595;5004;-82
2021/07/29 01:14:12;;;;;;;8.85;4.72;;;;;;;30.48;37.59;101119.66;144994;568;5004;-82
2021/07/29 01:16:39;;;;;;;7.53;4.37;;;;;;;30.49;37.19;101121.41;144994;586;5004;-82
2021/07/29 01:19:06;;;;;;;9.70;5.00;;;;;;;30.46;37.82;101116.19;144994;585;5004;-82
2021/07/29 01:21:34;;;;;;;7.50;4.95;;;;;;;30.45;37.60;101115.34;144994;607;5004;-81
2021/07/29 01:24:01;;;;;;;8.40;5.10;;;;;;;30.39;37.30;101119.16;144994;579;5004;-82
2021/07/29 01:26:27;;;;;;;9.15;4.97;;;;;;;30.32;38.11;101120.38;144994;582;5004;-81
2021/07/29 01:28:55;;;;;;;8.70;5.00;;;;;;;30.31;37.58;101113.28;144994;581;5004;-82
2021/07/29 01:31:22;;;;;;;8.95;5.18;;;;;;;30.33;37.61;101119.41;144994;589;5004;-83
2021/07/29 01:33:50;;;;;;;7.40;5.22;;;;;;;30.34;37.16;101112.28;144994;605;5004;-83
2021/07/29 01:36:17;;;;;;;9.98;5.47;;;;;;;30.34;37.76;101117.63;144994;627;4568;-81
2021/07/29 01:38:44;;;;;;;9.25;5.65;;;;;;;30.34;37.50;101118.50;144994;569;4574;-83
2021/07/29 01:41:10;;;;;;;9.63;5.82;;;;;;;30.34;37.62;101118.50;144993;577;4574;-83
2021/07/29 01:43:37;;;;;;;7.10;4.97;;;;;;;30.33;37.33;101116.75;144991;640;6002;-81
2021/07/29 01:46:03;;;;;;;14.43;5.18;;;;;;;30.32;37.41;101125.75;144992;570;6002;-82
2021/07/29 01:48:31;;;;;;;8.40;4.53;;;;;;;30.31;37.53;101118.63;144992;580;6002;-82
2021/07/29 01:50:58;;;;;;;7.35;4.90;;;;;;;30.32;37.66;101120.38;144992;596;6002;-83
2021/07/29 01:53:25;;;;;;;12.45;5.22;;;;;;;30.32;38.07;101122.16;144992;646;6002;-82
2021/07/29 01:55:52;;;;;;;8.77;5.47;;;;;;;30.29;38.03;101117.84;144992;617;6002;-84
2021/07/29 01:58:19;;;;;;;8.32;5.30;;;;;;;30.33;38.37;101122.09;144992;620;6002;-82
2021/07/29 02:00:48;;;;;;;8.88;5.22;;;;;;;30.31;37.90;101115.94;144992;582;6002;-82
2021/07/29 02:03:15;;;;;;;10.88;5.15;;;;;;;30.29;38.17;101127.66;144992;590;6002;-82
2021/07/29 02:05:41;;;;;;;13.02;5.32;;;;;;;30.29;37.85;101127.66;144992;667;6002;-82
2021/07/29 02:08:08;;;;;;;8.40;4.80;;;;;;;30.29;38.32;101127.66;144992;573;6002;-82
2021/07/29 02:10:35;;;;;;;8.05;4.95;;;;;;;30.29;38.32;101133.03;144992;594;6002;-82
2021/07/29 02:13:03;;;;;;;9.10;6.12;;;;;;;30.29;38.86;101131.22;144992;604;6002;-82
2021/07/29 02:15:32;;;;;;;9.15;5.82;;;;;;;30.30;38.81;101132.94;144992;576;6002;-83
2021/07/29 02:18:00;;;;;;;13.07;6.30;;;;;;;30.30;39.24;101132.09;144992;587;6002;-83
2021/07/29 02:20:30;;;;;;;13.98;6.45;;;;;;;30.28;38.63;101132.16;144992;597;6002;-82
2021/07/29 02:22:57;;;;;;;10.55;6.00;;;;;;;30.26;38.91;101130.47;144992;607;6002;-82
2021/07/29 02:25:24;;;;;;;12.82;6.07;;;;;;;30.24;38.61;101137.72;144992;612;6002;-83
2021/07/29 02:27:51;;;;;;;13.00;5.65;;;;;;;30.25;39.23;101134.12;144992;597;6002;-83
2021/07/29 02:30:18;;;;;;;11.15;5.78;;;;;;;30.26;39.43;101130.47;144992;569;6002;-86
2021/07/29 02:32:44;;;;;;;10.00;6.30;;;;;;;30.28;38.82;101126.81;144992;620;6002;-83
2021/07/29 02:35:11;;;;;;;8.25;5.07;;;;;;;30.32;39.58;101128.41;144992;594;6002;-83
2021/07/29 02:37:37;;;;;;;12.05;5.28;;;;;;;30.33;39.44;101124.78;144992;582;6002;-83
2021/07/29 02:40:04;;;;;;;10.55;5.00;;;;;;;30.32;39.39;101130.19;144992;565;6003;-82
2021/07/29 02:42:31;;;;;;;11.93;5.28;;;;;;;30.28;39.60;101132.16;144992;570;6002;-84
2021/07/29 02:44:57;;;;;;;12.45;5.95;;;;;;;30.17;39.59;101134.47;144992;569;6002;-85
2021/07/29 02:47:24;;;;;;;13.62;6.12;;;;;;;30.12;39.46;101140.03;144991;622;6002;-83
2021/07/29 02:49:51;;;;;;;11.45;6.18;;;;;;;30.13;39.73;101140.88;144992;631;6002;-83
2021/07/29 02:52:18;;;;;;;9.32;5.75;;;;;;;30.12;39.29;101139.16;144992;590;6002;-81
2021/07/29 02:54:45;;;;;;;15.52;6.37;;;;;;;30.11;39.91;101140.09;144992;628;6002;-82
2021/07/29 02:57:12;;;;;;;13.10;6.22;;;;;;;30.10;39.79;101143.69;144992;632;6002;-81
2021/07/29 02:59:38;;;;;;;8.93;5.78;;;;;;;30.09;39.62;101133.97;144992;570;6002;-83
2021/07/29 03:02:07;;;;;;;10.90;6.53;;;;;;;30.08;39.91;101138.41;144992;615;6002;-83
2021/07/29 03:04:34;;;;;;;11.95;5.90;;;;;;;30.10;39.83;101141.03;144992;582;6002;-84
2021/07/29 03:07:00;;;;;;;11.25;6.07;;;;;;;30.11;39.54;101140.97;144992;569;6002;-83
2021/07/29 03:09:27;;;;;;;10.93;5.95;;;;;;;30.10;40.00;101146.38;144992;667;6002;-83
2021/07/29 03:11:53;;;;;;;12.82;6.10;;;;;;;30.09;39.91;101144.66;144992;636;6002;-82
2021/07/29 03:14:20;;;;;;;12.27;6.60;;;;;;;29.99;39.58;101144.22;144992;615;6002;-83
2021/07/29 03:16:46;;;;;;;14.73;5.95;;;;;;;29.95;40.00;101147.94;144992;578;6002;-83
2021/07/29 03:19:13;;;;;;;8.98;5.90;;;;;;;29.92;39.86;101146.28;144992;574;6002;-83
2021/07/29 03:21:39;;;;;;;14.35;5.93;;;;;;;29.91;39.49;101141.87;144992;586;6002;-82
2021/07/29 03:24:06;;;;;;;11.88;6.00;;;;;;;29.92;39.84;101146.28;144992;569;6002;-83
2021/07/29 03:26:34;;;;;;;13.48;5.90;;;;;;;29.93;39.68;101145.34;144992;647;6002;-84
2021/07/29 03:29:00;;;;;;;13.02;6.15;;;;;;;29.94;39.65;101148.87;144992;622;6002;-82
2021/07/29 03:31:27;;;;;;;14.77;7.32;;;;;;;29.95;39.75;101147.94;144992;576;6002;-80
2021/07/29 03:33:53;;;;;;;14.43;6.45;;;;;;;29.94;39.44;101148.87;144992;569;6002;-83
2021/07/29 03:36:20;;;;;;;13.60;6.30;;;;;;;29.94;39.89;101143.53;144992;570;6002;-83
2021/07/29 03:38:47;;;;;;;19.60;6.87;;;;;;;29.93;39.75;101145.34;144992;595;6002;-83
2021/07/29 03:41:13;;;;;;;17.87;6.72;;;;;;;29.95;39.89;101137.25;144992;668;6002;-81
2021/07/29 03:43:40;;;;;;;16.27;7.07;;;;;;;29.96;39.62;101137.19;144992;569;6002;-83
2021/07/29 03:46:06;;;;;;;14.20;6.78;;;;;;;29.96;39.84;101137.19;144992;592;6002;-82
2021/07/29 03:48:33;;;;;;;18.10;7.05;;;;;;;29.96;40.13;101139.00;144992;651;6002;-82
2021/07/29 03:50:59;;;;;;;18.45;6.72;;;;;;;29.94;39.42;101141.75;144992;576;6002;-82
2021/07/29 03:53:26;;;;;;;19.80;7.20;;;;;;;29.92;39.97;101138.25;144991;585;6002;-83
2021/07/29 03:55:52;;;;;;;13.88;6.30;;;;;;;29.92;39.96;101137.38;144992;588;6002;-83
2021/07/29 03:58:19;;;;;;;16.35;6.50;;;;;;;29.90;39.40;101137.44;144992;581;6002;-82
2021/07/29 04:00:45;;;;;;;12.70;6.43;;;;;;;29.90;39.66;101134.78;144992;604;6002;-83
2021/07/29 04:03:12;;;;;;;11.85;5.82;;;;;;;29.89;39.72;101137.50;144992;583;6002;-83
2021/07/29 04:05:38;;;;;;;19.20;6.85;;;;;;;29.90;39.65;101134.78;144992;577;6002;-82
2021/07/29 04:08:06;;;;;;;11.15;5.93;;;;;;;29.89;40.12;101143.75;144992;565;6002;-83
2021/07/29 04:10:33;;;;;;;12.75;6.53;;;;;;;29.91;39.73;101141.87;144992;588;6002;-83
2021/07/29 04:13:00;;;;;;;11.80;6.03;;;;;;;29.95;40.00;101147.94;144992;593;6002;-83
2021/07/29 04:15:26;;;;;;;8.65;5.47;;;;;;;29.99;39.79;101141.53;144992;611;6002;-83
2021/07/29 04:17:53;;;;;;;9.52;6.00;;;;;;;30.00;39.35;101152.19;144992;588;6002;-82
2021/07/29 04:20:19;;;;;;;13.65;6.50;;;;;;;30.01;40.04;101148.53;144992;563;6002;-81
2021/07/29 04:22:46;;;;;;;12.93;6.20;;;;;;;30.01;39.88;101145.87;144992;564;6002;-83
2021/07/29 04:25:12;;;;;;;13.25;6.60;;;;;;;30.02;39.65;101147.62;144992;581;6002;-82
2021/07/29 04:27:39;;;;;;;16.50;6.28;;;;;;;29.99;40.43;101142.41;144992;570;6002;-82
2021/07/29 04:30:06;;;;;;;15.35;6.30;;;;;;;29.93;39.85;101148.03;144992;564;6002;-83
2021/07/29 04:32:35;;;;;;;12.60;6.15;;;;;;;29.90;40.36;101150.81;144992;585;6002;-84
2021/07/29 04:35:04;;;;;;;18.27;6.62;;;;;;;29.77;40.42;101150.47;144992;579;6002;-82
2021/07/29 04:37:30;;;;;;;16.12;6.70;;;;;;;29.66;40.33;101155.44;144992;571;6002;-82
2021/07/29 04:39:57;;;;;;;15.43;6.72;;;;;;;29.64;40.64;101149.28;144992;623;6002;-83
2021/07/29 04:42:24;;;;;;;18.67;6.93;;;;;;;29.65;40.17;101149.22;144992;588;6002;-82
2021/07/29 04:44:51;;;;;;;14.25;6.70;;;;;;;29.72;40.33;101140.94;144992;564;6002;-83
2021/07/29 04:47:17;;;;;;;14.27;6.75;;;;;;;29.82;40.66;101142.28;144992;666;6002;-82
2021/07/29 04:49:44;;;;;;;16.48;6.53;;;;;;;29.92;40.09;101153.44;144992;572;6002;-83
2021/07/29 04:52:10;;;;;;;14.15;6.50;;;;;;;30.00;39.79;101152.19;144992;572;6002;-82
2021/07/29 04:54:37;;;;;;;12.65;6.35;;;;;;;30.08;40.43;101153.62;144992;636;6002;-84
2021/07/29 04:57:04;;;;;;;19.10;6.65;;;;;;;30.16;40.05;101151.47;144992;585;6002;-84
2021/07/29 04:59:30;;;;;;;16.60;7.05;;;;;;;30.20;39.84;101155.75;144992;596;6002;-82
2021/07/29 05:01:57;;;;;;;17.20;6.87;;;;;;;30.26;39.75;101157.25;144992;593;6002;-82
2021/07/29 05:04:23;;;;;;;15.45;7.35;;;;;;;30.32;40.22;101157.88;144992;564;6002;-82
2021/07/29 05:06:50;;;;;;;18.33;7.43;;;;;;;30.38;40.27;101152.25;144992;599;6002;-83
2021/07/29 05:09:16;;;;;;;13.40;6.53;;;;;;;30.41;40.30;101155.72;144991;584;6002;-83
2021/07/29 05:11:43;;;;;;;16.55;6.53;;;;;;;30.44;40.43;101160.94;144992;638;6002;-82
2021/07/29 05:14:09;;;;;;;17.02;6.00;;;;;;;30.45;40.29;101157.31;144992;576;6002;-82
2021/07/29 05:16:36;;;;;;;17.23;6.62;;;;;;;30.49;39.93;101164.28;144992;565;6002;-84
2021/07/29 05:19:03;;;;;;;13.15;6.47;;;;;;;30.53;39.95;101160.53;144992;575;6002;-83
2021/07/29 05:21:30;;;;;;;17.40;8.20;;;;;;;30.61;40.30;101166.38;144992;633;6002;-82
2021/07/29 05:23:56;;;;;;;17.20;7.35;;;;;;;30.70;40.16;101165.06;144992;564;6002;-82
2021/07/29 05:26:23;;;;;;;14.73;6.75;;;;;;;30.74;39.85;101164.84;144992;572;6002;-82
2021/07/29 05:28:49;;;;;;;11.45;6.87;;;;;;;30.78;39.96;101160.19;144992;588;6002;-82
2021/07/29 05:31:16;;;;;;;14.57;6.22;;;;;;;30.79;40.24;101175.34;144992;690;6002;-83
2021/07/29 05:33:42;;;;;;;16.45;6.62;;;;;;;30.82;40.25;101180.56;144992;581;6002;-82
2021/07/29 05:36:09;;;;;;;14.98;8.25;;;;;;;30.84;39.78;101181.34;144992;631;6002;-83
2021/07/29 05:38:35;;;;;;;16.95;7.18;;;;;;;30.89;39.78;101178.44;144992;601;6003;-83
2021/07/29 05:41:09;;;;;;;15.85;7.05;;;;;;;30.75;38.89;101177.31;144992;575;6002;-83
2021/07/29 05:43:37;;;;;;;14.25;6.45;;;;;;;30.66;39.79;101177.75;144992;582;6002;-82
2021/07/29 05:46:11;;;;;;;12.30;6.32;;;;;;;30.71;39.59;101185.56;144992;590;6002;-81
2021/07/29 05:48:38;;;;;;;15.48;6.75;;;;;;;30.78;40.15;101176.28;144992;579;6002;-82
2021/07/29 05:51:05;;;;;;;15.73;6.85;;;;;;;30.79;39.83;101177.16;144992;610;6002;-84
2021/07/29 05:53:32;;;;;;;16.27;6.45;;;;;;;30.87;40.43;101178.53;144992;602;6002;-82
2021/07/29 05:55:59;;;;;;;13.20;7.05;;;;;;;31.00;39.77;101177.97;144992;610;6002;-83
2021/07/29 05:58:26;;;;;;;13.13;6.65;;;;;;;31.14;39.62;101166.56;144992;570;6002;-83
2021/07/29 06:00:53;;;;;;;14.27;6.85;;;;;;;31.25;40.50;101166.91;144992;577;6002;-83
2021/07/29 06:03:20;;;;;;;11.57;6.57;;;;;;;31.33;40.20;101167.38;144991;590;6002;-82
2021/07/29 06:05:46;;;;;;;11.85;6.55;;;;;;;31.35;39.30;101178.03;144991;592;6002;-83
2021/07/29 06:08:13;;;;;;;15.20;6.47;;;;;;;31.38;39.19;101170.69;144992;572;6002;-82
2021/07/29 06:10:40;;;;;;;17.15;6.47;;;;;;;31.43;39.15;101174.00;144992;591;6002;-80
2021/07/29 06:13:09;;;;;;;12.60;6.03;;;;;;;31.46;39.42;101164.94;144991;649;6002;-80
2021/07/29 06:15:36;;;;;;;13.35;6.10;;;;;;;31.51;39.14;101162.03;144992;564;6002;-83
2021/07/29 06:18:08;;;;;;;13.13;6.37;;;;;;;31.59;38.71;101163.41;144992;682;6002;-83
2021/07/29 06:20:35;;;;;;;13.15;6.93;;;;;;;31.71;38.64;101161.03;144992;590;6002;-83
2021/07/29 06:23:02;;;;;;;12.93;6.12;;;;;;;31.82;38.10;101156.84;144992;598;6002;-82
2021/07/29 06:25:28;;;;;;;21.77;13.45;;;;;;;31.95;38.48;101165.09;144992;569;6002;-83
2021/07/29 06:27:55;;;;;;;30.77;19.17;;;;;;;32.02;38.27;101160.25;144992;587;6002;-83
2021/07/29 06:30:21;;;;;;;20.58;10.25;;;;;;;32.06;38.42;101164.53;144992;650;6002;-83
2021/07/29 06:32:48;;;;;;;15.57;9.40;;;;;;;32.10;38.25;101158.09;144992;707;6002;-83
2021/07/29 06:35:14;;;;;;;18.17;9.15;;;;;;;32.17;38.14;101158.63;144992;564;6002;-83
2021/07/29 06:37:41;;;;;;;19.73;11.55;;;;;;;32.25;38.29;101164.44;144992;587;6003;-82
2021/07/29 06:40:08;;;;;;;20.95;10.65;;;;;;;32.31;38.12;101155.16;144992;675;6002;-83
2021/07/29 06:42:35;;;;;;;16.35;8.55;;;;;;;32.35;37.68;101156.75;144992;636;6002;-84
2021/07/29 06:45:02;;;;;;;19.77;10.02;;;;;;;32.40;37.45;101154.66;144992;697;6002;-81
2021/07/29 06:47:31;;;;;;;18.58;10.20;;;;;;;32.44;38.01;101158.06;144992;573;6002;-83
2021/07/29 06:49:57;;;;;;;20.02;13.98;;;;;;;32.52;37.82;101156.69;144992;723;6002;-83
2021/07/29 06:52:24;;;;;;;23.27;10.07;;;;;;;32.61;37.77;101157.09;144992;577;6002;-84
2021/07/29 06:54:51;;;;;;;16.00;7.65;;;;;;;32.72;37.76;101154.72;144992;585;6002;-84
2021/07/29 06:57:17;;;;;;;13.27;7.10;;;;;;;32.82;38.01;101147.00;144991;573;6002;-82
2021/07/29 06:59:44;;;;;;;13.27;6.47;;;;;;;32.92;37.52;101147.34;144992;578;6002;-82
2021/07/29 07:02:10;;;;;;;20.98;10.35;;;;;;;32.97;35.09;101151.50;144992;713;6002;-81
2021/07/29 07:04:37;;;;;;;18.08;10.63;;;;;;;32.90;37.24;101151.00;144992;591;6002;-82
2021/07/29 07:07:03;;;;;;;17.40;7.87;;;;;;;32.97;37.51;101148.81;144992;568;6010;-82
2021/07/29 07:09:30;;;;;;;20.75;6.93;;;;;;;32.90;34.73;101150.12;144992;591;6002;-81
2021/07/29 07:11:57;;;;;;;18.65;7.20;;;;;;;32.91;36.46;101154.53;144992;614;6002;-83
2021/07/29 07:14:24;;;;;;;30.27;8.27;;;;;;;32.84;36.72;101147.78;144991;563;6002;-82
2021/07/29 07:16:51;;;;;;;18.55;7.82;;;;;;;32.82;37.25;101153.25;144992;692;6002;-83
2021/07/29 07:19:17;;;;;;;14.23;7.60;;;;;;;32.92;38.14;101147.34;144992;563;6002;-82
2021/07/29 07:21:43;;;;;;;23.20;7.57;;;;;;;32.73;38.63;101151.94;144992;651;6002;-83
2021/07/29 07:24:10;;;;;;;15.80;7.72;;;;;;;32.60;39.08;101160.78;144992;668;6002;-82
2021/07/29 07:26:37;;;;;;;14.32;7.45;;;;;;;32.56;39.63;101160.06;144992;565;6002;-82
2021/07/29 07:29:05;;;;;;;12.88;8.00;;;;;;;32.55;41.38;101159.19;144992;571;6002;-83
2021/07/29 07:31:31;;;;;;;17.23;7.45;;;;;;;32.51;40.33;101156.75;144992;565;6002;-83
2021/07/29 07:33:58;;;;;;;14.77;7.78;;;;;;;32.62;39.33;101148.09;144992;659;6002;-83
2021/07/29 07:36:25;;;;;;;17.35;6.95;;;;;;;32.66;40.89;101149.69;144992;682;6002;-82
2021/07/29 07:38:53;;;;;;;12.40;7.35;;;;;;;32.73;39.80;101145.72;144992;594;6002;-83
2021/07/29 07:41:20;;;;;;;12.45;6.80;;;;;;;32.79;40.50;101150.75;144992;605;6002;-84
2021/07/29 07:43:47;;;;;;;14.57;6.60;;;;;;;32.75;40.01;101154.53;144992;592;6002;-83
2021/07/29 07:46:13;;;;;;;13.75;6.70;;;;;;;32.71;41.38;101153.00;144992;616;6002;-83
2021/07/29 07:48:40;;;;;;;16.48;6.82;;;;;;;32.76;40.74;101153.59;144992;596;6002;-81
2021/07/29 07:51:09;;;;;;;15.23;6.82;;;;;;;32.82;40.50;101157.75;144992;569;6002;-82
2021/07/29 07:53:36;;;;;;;19.10;6.80;;;;;;;32.92;40.83;101156.28;144992;618;6002;-84
2021/07/29 07:56:05;;;;;;;14.48;7.00;;;;;;;32.92;41.00;101150.91;144992;583;6002;-83
2021/07/29 07:58:32;;;;;;;20.52;7.68;;;;;;;33.09;40.68;101152.63;144993;575;6002;-81
2021/07/29 08:01:06;;;;;;;19.58;6.85;;;;;;;33.06;42.37;101152.78;144993;620;6002;-83
2021/07/29 08:03:33;;;;;;;17.48;7.12;;;;;;;33.09;41.79;101152.63;144993;580;6002;-82
2021/07/29 08:06:03;;;;;;;14.60;6.55;;;;;;;33.29;42.58;101153.28;144993;591;6002;-83
2021/07/29 08:08:29;;;;;;;20.27;6.28;;;;;;;33.38;41.42;101144.69;144993;566;6002;-81
2021/07/29 08:10:55;;;;;;;15.65;6.00;;;;;;;33.36;42.54;101150.16;144993;576;6002;-83
2021/07/29 08:13:22;;;;;;;11.05;5.90;;;;;;;33.38;41.62;101142.84;144992;629;6002;-83
2021/07/29 08:15:49;;;;;;;9.38;5.82;;;;;;;33.38;43.08;101148.22;144993;569;6002;-85
2021/07/29 08:18:15;;;;;;;13.40;6.40;;;;;;;33.41;42.89;101145.34;144993;590;6002;-82
2021/07/29 08:20:43;;;;;;;11.57;6.18;;;;;;;33.36;42.09;101143.88;144993;601;6002;-82
2021/07/29 08:23:09;;;;;;;13.60;6.10;;;;;;;33.34;42.40;101140.44;144993;572;6002;-81
2021/07/29 08:25:36;;;;;;;10.95;6.53;;;;;;;33.29;43.29;101148.78;144993;585;6002;-82
2021/07/29 08:28:05;;;;;;;10.65;5.62;;;;;;;33.40;42.12;101135.53;144992;593;6002;-82
2021/07/29 08:30:33;;;;;;;11.23;5.55;;;;;;;33.53;42.50;101145.56;144992;600;6002;-85
2021/07/29 08:33:10;;;;;;;10.80;5.53;;;;;;;33.51;42.59;101139.44;144992;591;6002;-82
2021/07/29 08:35:38;;;;;;;13.25;5.85;;;;;;;33.40;43.60;101135.53;144992;592;6002;-83
2021/07/29 08:38:05;;;;;;;14.63;6.10;;;;;;;33.09;46.89;101141.87;144992;648;6002;-84
2021/07/29 08:40:33;;;;;;;10.25;5.70;;;;;;;33.14;44.68;101139.75;144992;705;6002;-83
2021/07/29 08:43:01;;;;;;;9.95;6.40;;;;;;;33.14;44.97;101142.44;144993;580;6002;-85
2021/07/29 08:45:31;;;;;;;9.40;5.80;;;;;;;33.14;45.59;101133.50;144993;600;6002;-82
2021/07/29 08:48:01;;;;;;;9.57;5.55;;;;;;;33.13;45.62;101138.00;144993;599;6002;-83
2021/07/29 08:50:28;;;;;;;14.32;5.72;;;;;;;33.12;46.41;101141.69;144993;583;6002;-82
2021/07/29 08:52:54;;;;;;;9.25;5.43;;;;;;;32.92;47.69;101141.97;144993;596;6002;-84
2021/07/29 08:55:21;;;;;;;14.10;6.15;;;;;;;32.86;48.15;101140.50;144993;594;6002;-84
2021/07/29 08:57:47;;;;;;;11.50;5.75;;;;;;;32.96;47.00;101130.06;144993;612;6002;-83
2021/07/29 09:00:15;;;;;;;10.40;5.62;;;;;;;32.92;47.05;101134.78;144993;584;6002;-82
2021/07/29 09:02:41;;;;;;;14.13;5.57;;;;;;;32.94;46.42;101138.22;144992;622;6002;-82
2021/07/29 09:05:18;;;;;;;11.77;6.87;;;;;;;32.79;46.85;101141.78;144993;586;6002;-83
2021/07/29 09:08:07;;;;;;;8.43;5.40;;;;;;;33.00;46.37;101134.31;144993;645;6002;-83
2021/07/29 09:10:39;;;;;;;7.00;5.75;;;;;;;32.72;47.13;101134.09;144993;728;6000;-82
2021/07/29 09:13:15;;;;;;;14.10;6.05;;;;;;;32.73;47.23;101134.94;144993;582;6002;-81
2021/07/29 09:15:43;;;;;;;12.43;5.35;;;;;;;32.81;46.72;101132.69;144993;613;6002;-83
2021/07/29 09:18:10;;;;;;;10.90;5.93;;;;;;;32.75;47.06;101130.34;144993;588;6002;-83
2021/07/29 09:20:38;;;;;;;13.40;6.40;;;;;;;32.61;47.23;101133.81;144993;581;6002;-84
2021/07/29 09:23:19;;;;;;;12.63;6.12;;;;;;;32.55;47.15;101124.25;144993;593;6002;-85
2021/07/29 09:26:01;;;;;;;13.80;6.20;;;;;;;32.56;47.12;101125.13;144993;564;6002;-83
2021/07/29 09:28:37;;;;;;;8.02;5.87;;;;;;;32.47;47.61;101128.31;144993;605;6002;-83
2021/07/29 09:31:21;;;;;;;10.88;5.82;;;;;;;32.49;47.49;101135.34;144993;659;6002;-84
2021/07/29 09:33:59;;;;;;;8.55;5.75;;;;;;;32.43;47.19;101124.94;144993;596;6002;-85
2021/07/29 09:36:33;;;;;;;11.80;5.93;;;;;;;32.49;47.36;101132.66;144994;609;5002;-84
2021/07/29 09:39:22;;;;;;;13.45;6.35;;;;;;;32.55;46.98;101126.94;144994;571;5002;-82
2021/07/29 09:41:51;;;;;;;9.10;6.30;;;;;;;32.52;47.46;101137.00;144994;629;5004;-83
2021/07/29 09:44:38;;;;;;;11.38;6.03;;;;;;;32.63;46.60;101134.63;144994;599;5005;-83
2021/07/29 09:47:07;;;;;;;10.30;6.10;;;;;;;32.76;46.40;101124.03;144994;607;5002;-84
2021/07/29 09:49:35;;;;;;;15.35;6.45;;;;;;;32.61;46.61;101131.13;144994;570;5002;-83
2021/07/29 09:52:06;;;;;;;11.18;5.97;;;;;;;32.70;45.96;101130.59;144994;566;5002;-84
2021/07/29 09:54:38;;;;;;;10.98;6.43;;;;;;;32.78;45.40;101134.69;144994;592;5002;-83
2021/07/29 09:57:18;;;;;;;11.57;5.87;;;;;;;32.87;44.84;101121.59;144994;646;5002;-83
2021/07/29 09:59:45;;;;;;;14.50;6.62;;;;;;;32.92;44.99;101125.84;144994;566;5003;-83
2021/07/29 10:02:20;;;;;;;13.05;6.47;;;;;;;32.99;45.20;101124.50;144994;582;5002;-83
2021/07/29 10:04:53;;;;;;;11.20;6.10;;;;;;;33.07;43.71;101124.94;144994;622;5002;-84
2021/07/29 10:07:29;;;;;;;15.50;5.80;;;;;;;33.35;41.29;101112.59;144994;583;5002;-86
2021/07/29 10:10:12;;;;;;;10.80;5.65;;;;;;;33.39;38.73;101117.69;144994;655;5002;-83
2021/07/29 10:12:55;;;;;;;9.98;5.70;;;;;;;33.32;37.41;101110.06;144994;577;5002;-85
2021/07/29 10:15:51;;;;;;;13.88;6.50;;;;;;;33.37;36.83;101116.03;144994;566;5002;-84
2021/07/29 10:18:48;;;;;;;10.90;5.60;;;;;;;33.61;37.50;101111.87;144994;578;5004;-80
2021/07/29 10:21:38;;;;;;;10.50;5.70;;;;;;;33.88;36.57;101103.06;144993;570;5003;-84
2021/07/29 10:24:19;;;;;;;16.75;5.82;;;;;;;33.94;36.05;101108.06;144994;581;5004;-83
2021/07/29 10:27:22;;;;;;;9.68;5.28;;;;;;;34.10;35.82;101104.41;144994;577;5004;-85
2021/07/29 10:30:19;;;;;;;10.60;5.75;;;;;;;34.16;35.73;101106.72;144994;594;5002;-82
2021/07/29 10:33:22;;;;;;;10.88;5.65;;;;;;;34.27;35.48;101098.00;144994;656;5004;-84
2021/07/29 10:36:13;;;;;;;9.07;4.97;;;;;;;34.21;33.56;101084.87;144994;618;5002;-85
2021/07/29 10:38:47;;;;;;;13.62;5.40;;;;;;;34.26;33.73;101086.31;144993;606;6004;-82
2021/07/29 10:41:42;;;;;;;11.60;5.32;;;;;;;34.13;33.10;101082.66;144994;594;5002;-88
2021/07/29 10:44:49;;;;;;;11.35;5.22;;;;;;;34.28;34.31;101088.94;144994;574;5005;-84
2021/07/29 10:47:45;;;;;;;16.40;5.53;;;;;;;34.49;34.34;101078.56;144994;605;5004;-78
2021/07/29 10:50:24;;;;;;;9.73;5.35;;;;;;;34.48;33.36;101074.16;144994;705;5002;-81
2021/07/29 10:52:52;;;;;;;8.00;5.40;;;;;;;34.37;34.19;101076.69;144994;596;5002;-85
2021/07/29 10:55:21;;;;;;;10.15;5.30;;;;;;;34.41;34.66;101067.44;144994;563;5002;-85
2021/07/29 10:57:57;;;;;;;10.88;5.50;;;;;;;34.30;35.66;101055.53;144994;574;5002;-83
2021/07/29 11:00:24;;;;;;;11.15;5.65;;;;;;;34.20;35.52;101067.81;144994;575;5002;-84
2021/07/29 11:02:52;;;;;;;11.27;5.55;;;;;;;34.20;33.19;101061.59;144994;583;5002;-85
2021/07/29 11:05:26;;;;;;;11.43;5.18;;;;;;;34.06;33.99;101051.69;144994;616;5002;-83
2021/07/29 11:07:53;;;;;;;15.30;6.32;;;;;;;33.94;34.65;101040.75;144994;573;5002;-84
2021/07/29 11:10:27;;;;;;;12.77;5.82;;;;;;;33.98;35.02;101044.97;144994;576;5002;-82
2021/07/29 11:12:53;;;;;;;12.48;6.05;;;;;;;34.05;35.69;101039.22;144994;588;5002;-83
2021/07/29 11:15:20;;;;;;;13.98;6.18;;;;;;;34.03;35.44;101051.88;144994;597;5002;-82
2021/07/29 11:17:47;;;;;;;14.50;5.43;;;;;;;34.05;34.42;101040.06;144994;569;5002;-83
2021/07/29 11:20:24;;;;;;;16.77;5.95;;;;;;;33.95;34.59;101033.56;144994;659;5002;-83
2021/07/29 11:22:51;;;;;;;13.15;5.50;;;;;;;33.79;35.18;101037.22;144994;569;5002;-82
2021/07/29 11:25:17;;;;;;;9.00;6.10;;;;;;;33.68;36.08;101031.59;144994;590;5002;-84
2021/07/29 11:27:44;;;;;;;9.13;5.72;;;;;;;33.61;37.41;101032.94;144994;726;5002;-82
2021/07/29 11:30:12;;;;;;;10.63;5.60;;;;;;;33.64;38.61;101035.44;144994;606;5002;-83
2021/07/29 11:32:40;;;;;;;8.63;5.28;;;;;;;33.66;40.06;101030.81;144994;566;5002;-84
2021/07/29 11:35:09;;;;;;;12.30;5.82;;;;;;;33.58;40.71;101034.00;144994;620;5002;-85
2021/07/29 11:37:45;;;;;;;8.98;5.30;;;;;;;33.47;41.68;101023.03;144994;565;5002;-82